Terminal Aerodrome Forecast
Issued by NWS

Home | Current Version | Previous Version | Text Only | Print | Product List | Glossary On
Versions: 1 2 3 4 5 6 7 8 9 10 11 12 13 14 15 16 17 18 19 20 21
994
FTUS44 KTSA 271739
TAFMLC
TAF
KMLC 271739Z 2718/2818 18010KT P6SM SCT030 BKN250
      TEMPO 2718/2720 BKN025
     FM280100 17007KT P6SM SCT040 SCT250
     FM280300 18005KT P6SM BKN015=

USA.gov is the U.S. government's official web portal to all federal, state and local government web resources and services.